Time;durP1;ratioP1;P1;durP2;ratioP2;P2;SDS_P1;SDS_P2;PMS_P1;PMS_P2;Temp;Humidity;BMP_temperature;BMP_pressure;BME280_temperature;BME280_humidity;BME280_pressure;Samples;Min_cycle;Max_cycle;Signal;HPM_P1;HPM_P2
2022/12/25 00:01:50;;;;;;;;;;;7.30;99.90;;;;;;5047873;28;20297;-66
2022/12/25 00:04:16;;;;;;;;;;;7.30;99.90;;;;;;5044173;28;19920;-67
2022/12/25 00:06:41;;;;;;;;;;;7.40;99.90;;;;;;5051126;28;19912;-69
2022/12/25 00:09:07;;;;;;;;;;;7.40;99.90;;;;;;5047476;28;19920;-67
2022/12/25 00:11:32;;;;;;;;;;;7.40;99.90;;;;;;5045613;28;20316;-66
2022/12/25 00:13:57;;;;;;;;;;;7.40;99.90;;;;;;5047590;28;20399;-67
2022/12/25 00:16:24;;;;;;;;;;;7.40;99.90;;;;;;5043857;28;19913;-68
2022/12/25 00:18:52;;;;;;;;;;;7.40;99.90;;;;;;5050163;28;20054;-67
2022/12/25 00:21:18;;;;;;;;;;;7.40;99.90;;;;;;5050786;28;20393;-67
2022/12/25 00:23:44;;;;;;;;;;;7.40;99.90;;;;;;5051608;28;19917;-68
2022/12/25 00:26:11;;;;;;;;;;;7.50;99.90;;;;;;5048242;28;19920;-67
2022/12/25 00:28:37;;;;;;;;;;;7.50;99.90;;;;;;5054015;28;19925;-66
2022/12/25 00:31:03;;;;;;;;;;;7.50;99.90;;;;;;5049737;28;19983;-65
2022/12/25 00:33:28;;;;;;;;;;;7.60;99.90;;;;;;5052263;28;19959;-66
2022/12/25 00:35:58;;;;;;;;;;;7.70;99.90;;;;;;5048271;28;20392;-66
2022/12/25 00:38:23;;;;;;;;;;;7.70;99.90;;;;;;5048754;28;19912;-66
2022/12/25 00:40:49;;;;;;;;;;;7.70;99.90;;;;;;5045200;28;19924;-67
2022/12/25 00:43:14;;;;;;;;;;;7.80;99.90;;;;;;5046154;28;19957;-64
2022/12/25 00:45:40;;;;;;;;;;;7.80;99.90;;;;;;5038915;28;19913;-67
2022/12/25 00:48:05;;;;;;;;;;;7.90;99.90;;;;;;5054401;28;20547;-65
2022/12/25 00:50:31;;;;;;;;;;;7.90;99.90;;;;;;5046441;28;20387;-66
2022/12/25 00:52:56;;;;;;;;;;;8.00;99.90;;;;;;5051312;28;19923;-67
2022/12/25 00:55:21;;;;;;;;;;;8.00;99.90;;;;;;5045626;28;19920;-67
2022/12/25 00:57:47;;;;;;;;;;;8.00;99.90;;;;;;5046371;28;20102;-67
2022/12/25 01:00:13;;;;;;;;;;;8.10;99.90;;;;;;5046882;28;19960;-67
2022/12/25 01:02:38;;;;;;;;;;;8.10;99.90;;;;;;5055784;28;20378;-67
2022/12/25 01:05:04;;;;;;;;;;;8.20;99.90;;;;;;5051556;28;19920;-67
2022/12/25 01:07:30;;;;;;;;;;;8.20;99.90;;;;;;5050695;28;19995;-68
2022/12/25 01:12:40;;;;;;;;;;;8.30;99.90;;;;;;5044121;28;19919;-67
2022/12/25 01:15:07;;;;;;;;;;;8.30;99.90;;;;;;5054581;28;19999;-66
2022/12/25 01:17:32;;;;;;;;;;;8.30;99.90;;;;;;5043169;28;19975;-67
2022/12/25 01:19:58;;;;;;;;;;;8.30;99.90;;;;;;5047373;28;19917;-67
2022/12/25 01:22:23;;;;;;;;;;;8.30;99.90;;;;;;5045496;28;20510;-66
2022/12/25 01:24:49;;;;;;;;;;;8.30;99.90;;;;;;5051751;28;20000;-68
2022/12/25 01:27:14;;;;;;;;;;;8.30;99.90;;;;;;5054389;28;20028;-66
2022/12/25 01:29:40;;;;;;;;;;;8.30;99.90;;;;;;5052551;28;19938;-65
2022/12/25 01:32:06;;;;;;;;;;;8.30;99.90;;;;;;5050425;28;19916;-66
2022/12/25 01:34:32;;;;;;;;;;;8.20;99.90;;;;;;5050060;28;19920;-66
2022/12/25 01:36:57;;;;;;;;;;;8.10;99.90;;;;;;5049969;28;20286;-67
2022/12/25 01:39:23;;;;;;;;;;;8.10;99.90;;;;;;5053795;28;19982;-65
2022/12/25 01:41:48;;;;;;;;;;;8.10;99.90;;;;;;5049037;28;19924;-66
2022/12/25 01:44:13;;;;;;;;;;;8.00;99.90;;;;;;5045018;28;20352;-65
2022/12/25 01:46:39;;;;;;;;;;;8.00;99.90;;;;;;5053769;28;19912;-66
2022/12/25 01:49:07;;;;;;;;;;;8.00;99.90;;;;;;5051378;28;19917;-66
2022/12/25 01:51:33;;;;;;;;;;;8.10;99.90;;;;;;5059476;28;19912;-66
2022/12/25 01:54:00;;;;;;;;;;;8.00;99.90;;;;;;5051033;28;20004;-68
2022/12/25 01:56:27;;;;;;;;;;;8.00;99.90;;;;;;5056702;28;19986;-65
2022/12/25 01:58:54;;;;;;;;;;;8.00;99.90;;;;;;5054334;28;19912;-66
2022/12/25 02:01:20;;;;;;;;;;;8.00;99.90;;;;;;5045794;28;19923;-66
2022/12/25 02:03:45;;;;;;;;;;;8.00;99.90;;;;;;5046156;28;19916;-67
2022/12/25 02:06:11;;;;;;;;;;;8.00;99.90;;;;;;5051321;28;19982;-66
2022/12/25 02:08:36;;;;;;;;;;;8.10;99.90;;;;;;5051944;28;20034;-66
2022/12/25 02:11:02;;;;;;;;;;;8.00;99.90;;;;;;5046204;28;19971;-67
2022/12/25 02:13:27;;;;;;;;;;;8.00;99.90;;;;;;5049357;28;19959;-66
2022/12/25 02:16:09;;;;;;;;;;;8.00;99.90;;;;;;5046544;28;19966;-67
2022/12/25 02:18:34;;;;;;;;;;;8.10;99.90;;;;;;5050379;28;19917;-66
2022/12/25 02:21:20;;;;;;;;;;;8.10;99.90;;;;;;5047186;28;19917;-66
2022/12/25 02:23:46;;;;;;;;;;;8.20;99.90;;;;;;5050176;28;19916;-68
2022/12/25 02:26:15;;;;;;;;;;;8.20;99.90;;;;;;5046679;28;20401;-66
2022/12/25 02:28:51;;;;;;;;;;;8.20;99.90;;;;;;5054933;28;19913;-66
2022/12/25 02:31:33;;;;;;;;;;;8.20;99.90;;;;;;5044272;28;20397;-66
2022/12/25 02:34:04;;;;;;;;;;;8.30;99.90;;;;;;5048563;28;20393;-66
2022/12/25 02:36:32;;;;;;;;;;;8.30;99.90;;;;;;5053241;28;20038;-66
2022/12/25 02:41:44;;;;;;;;;;;8.40;99.90;;;;;;5047276;28;19927;-66
2022/12/25 03:11:29;;;;;;;;;;;8.30;99.90;;;;;;5050165;28;19920;-67
2022/12/25 03:11:47;;;;;;;;;;;8.30;99.90;;;;;;5045979;28;19919;-67
2022/12/25 03:17:16;;;;;;;;;;;8.20;99.90;;;;;;4977007;28;19968;-66
2022/12/25 03:27:56;;;;;;;;;;;8.20;99.90;;;;;;5045775;28;19923;-67
2022/12/25 03:33:09;;;;;;;;;;;8.30;99.90;;;;;;5044465;28;19920;-66
2022/12/25 03:35:44;;;;;;;;;;;8.30;99.90;;;;;;5044074;28;19912;-65
2022/12/25 04:36:39;;;;;;;;;;;8.90;99.90;;;;;;5025225;28;20294;-63
2022/12/25 04:39:04;;;;;;;;;;;8.90;99.90;;;;;;5027494;28;20011;-63
2022/12/25 04:41:29;;;;;;;;;;;8.90;99.90;;;;;;5026715;28;19953;-63
2022/12/25 04:43:55;;;;;;;;;;;8.90;99.90;;;;;;5028361;28;19967;-62
2022/12/25 04:46:20;;;;;;;;;;;8.70;99.90;;;;;;5021660;28;20014;-62
2022/12/25 04:48:46;;;;;;;;;;;8.70;99.90;;;;;;5027136;28;20000;-62
2022/12/25 04:51:13;;;;;;;;;;;8.60;99.90;;;;;;5026918;28;19968;-63
2022/12/25 04:53:38;;;;;;;;;;;8.70;99.90;;;;;;5026996;28;19926;-63
2022/12/25 04:56:04;;;;;;;;;;;8.60;99.90;;;;;;5027373;28;19921;-62
2022/12/25 04:58:31;;;;;;;;;;;8.60;99.90;;;;;;5028533;28;19913;-63
2022/12/25 05:01:00;;;;;;;;;;;8.70;99.90;;;;;;5029725;28;20061;-62
2022/12/25 05:03:25;;;;;;;;;;;8.70;99.90;;;;;;5029642;28;20743;-63
2022/12/25 05:05:51;;;;;;;;;;;8.70;99.90;;;;;;5030063;28;19928;-62
2022/12/25 05:08:16;;;;;;;;;;;8.70;99.90;;;;;;5029715;28;19966;-63
2022/12/25 05:10:42;;;;;;;;;;;8.70;99.90;;;;;;5026519;28;20386;-61
2022/12/25 05:13:07;;;;;;;;;;;8.50;99.90;;;;;;5031222;28;20327;-63
2022/12/25 05:15:33;;;;;;;;;;;8.50;99.90;;;;;;5029472;28;19913;-60
2022/12/25 05:17:58;;;;;;;;;;;8.40;99.90;;;;;;5026766;28;19913;-62
2022/12/25 05:20:24;;;;;;;;;;;8.40;99.90;;;;;;5032679;28;19968;-61
2022/12/25 05:22:49;;;;;;;;;;;8.40;99.90;;;;;;5029472;28;19980;-61
2022/12/25 05:25:14;;;;;;;;;;;8.40;99.90;;;;;;5030223;28;20007;-63
2022/12/25 05:27:40;;;;;;;;;;;8.40;99.90;;;;;;5024827;28;19917;-62
2022/12/25 05:30:06;;;;;;;;;;;8.40;99.90;;;;;;5031923;28;19921;-62
2022/12/25 05:32:31;;;;;;;;;;;8.40;99.90;;;;;;5031225;28;19913;-61
2022/12/25 05:34:59;;;;;;;;;;;8.30;99.90;;;;;;5031958;28;19914;-63
2022/12/25 05:37:24;;;;;;;;;;;8.20;99.90;;;;;;5030288;28;19924;-63
2022/12/25 05:39:50;;;;;;;;;;;8.20;99.90;;;;;;5027355;28;19921;-62
2022/12/25 05:42:15;;;;;;;;;;;8.20;99.90;;;;;;5029655;28;20011;-63
2022/12/25 05:44:41;;;;;;;;;;;8.20;99.90;;;;;;5029819;28;19921;-63
2022/12/25 05:47:06;;;;;;;;;;;8.20;99.90;;;;;;5030448;28;19913;-62
2022/12/25 05:49:32;;;;;;;;;;;8.30;99.90;;;;;;5030952;28;19924;-62
2022/12/25 05:51:57;;;;;;;;;;;8.30;99.90;;;;;;5031118;28;19920;-62
2022/12/25 05:54:23;;;;;;;;;;;8.40;99.90;;;;;;5030454;28;19917;-61
2022/12/25 05:56:48;;;;;;;;;;;8.40;99.90;;;;;;5028458;28;19952;-62
2022/12/25 05:59:13;;;;;;;;;;;8.50;99.90;;;;;;5023434;28;20399;-62
2022/12/25 06:01:39;;;;;;;;;;;8.50;99.90;;;;;;5026791;28;19993;-61
2022/12/25 06:04:04;;;;;;;;;;;8.50;99.90;;;;;;5029547;28;19921;-62
2022/12/25 06:06:30;;;;;;;;;;;8.50;99.90;;;;;;5027756;28;19917;-62
2022/12/25 06:08:55;;;;;;;;;;;8.50;99.90;;;;;;5028043;28;19917;-62
2022/12/25 06:11:21;;;;;;;;;;;8.60;99.90;;;;;;5028232;28;19913;-62
2022/12/25 06:13:50;;;;;;;;;;;8.70;99.90;;;;;;5027744;28;20405;-61
2022/12/25 06:16:16;;;;;;;;;;;8.70;99.90;;;;;;5029557;28;19913;-62
2022/12/25 06:18:43;;;;;;;;;;;8.80;99.90;;;;;;5029645;28;19982;-62
2022/12/25 06:21:09;;;;;;;;;;;8.90;99.90;;;;;;5029572;28;20367;-61
2022/12/25 06:23:36;;;;;;;;;;;9.00;99.90;;;;;;5027228;28;19949;-62
2022/12/25 06:26:03;;;;;;;;;;;9.00;99.90;;;;;;5028461;28;20306;-63
2022/12/25 06:28:28;;;;;;;;;;;9.00;99.90;;;;;;5029920;28;19913;-63
2022/12/25 06:30:54;;;;;;;;;;;9.10;99.90;;;;;;5027326;28;19913;-63
2022/12/25 06:33:19;;;;;;;;;;;9.10;99.90;;;;;;5030539;28;19917;-63
2022/12/25 06:35:44;;;;;;;;;;;9.10;99.90;;;;;;5028132;28;19917;-63
2022/12/25 06:38:10;;;;;;;;;;;9.10;99.90;;;;;;5029965;28;19952;-62
2022/12/25 06:40:35;;;;;;;;;;;9.20;99.90;;;;;;5026095;28;19917;-62
2022/12/25 06:43:01;;;;;;;;;;;9.20;99.90;;;;;;5028903;28;19913;-61
2022/12/25 06:45:26;;;;;;;;;;;9.20;99.90;;;;;;5026255;28;19932;-62
2022/12/25 06:47:52;;;;;;;;;;;9.20;99.90;;;;;;5030132;28;20303;-62
2022/12/25 06:50:17;;;;;;;;;;;9.20;99.90;;;;;;5024342;28;19913;-62
2022/12/25 06:52:42;;;;;;;;;;;9.30;99.90;;;;;;5030483;28;19917;-63
2022/12/25 06:55:08;;;;;;;;;;;9.20;99.90;;;;;;5028624;28;19959;-61
2022/12/25 06:57:33;;;;;;;;;;;9.30;99.90;;;;;;5029115;28;19971;-62
2022/12/25 06:59:59;;;;;;;;;;;9.30;99.90;;;;;;5022892;28;19913;-63
2022/12/25 07:02:24;;;;;;;;;;;9.30;99.90;;;;;;5026911;28;19924;-62
2022/12/25 07:04:51;;;;;;;;;;;9.40;99.90;;;;;;5023020;28;19917;-62
2022/12/25 07:07:16;;;;;;;;;;;9.40;99.90;;;;;;5025275;28;19948;-63
2022/12/25 07:09:42;;;;;;;;;;;9.40;99.90;;;;;;5028002;28;20144;-62
2022/12/25 07:12:13;;;;;;;;;;;9.50;99.90;;;;;;5030153;28;19967;-63
2022/12/25 07:14:39;;;;;;;;;;;9.50;99.90;;;;;;5022618;28;19967;-63
2022/12/25 07:17:05;;;;;;;;;;;9.60;99.90;;;;;;5027731;28;19917;-61
2022/12/25 07:19:31;;;;;;;;;;;9.60;99.90;;;;;;5024195;28;20008;-62
2022/12/25 07:21:56;;;;;;;;;;;9.60;99.90;;;;;;5025380;28;20000;-62
2022/12/25 07:24:22;;;;;;;;;;;9.60;99.90;;;;;;5027141;28;19913;-62
2022/12/25 07:26:48;;;;;;;;;;;9.60;99.90;;;;;;5028998;28;19917;-60
2022/12/25 07:29:13;;;;;;;;;;;9.70;99.90;;;;;;5026758;28;19924;-61
2022/12/25 07:31:39;;;;;;;;;;;9.70;99.90;;;;;;5024152;28;19976;-60
2022/12/25 07:34:04;;;;;;;;;;;9.70;99.90;;;;;;5028727;28;20411;-62
2022/12/25 07:36:30;;;;;;;;;;;9.70;99.90;;;;;;5027754;28;19920;-60
2022/12/25 07:38:55;;;;;;;;;;;9.70;99.90;;;;;;5028291;28;19913;-62
2022/12/25 07:41:21;;;;;;;;;;;9.70;99.90;;;;;;5025823;28;20031;-62
2022/12/25 07:43:50;;;;;;;;;;;9.70;99.90;;;;;;5023538;28;19967;-62
2022/12/25 07:46:16;;;;;;;;;;;9.70;99.90;;;;;;5027511;28;19913;-62
2022/12/25 07:48:41;;;;;;;;;;;9.80;99.90;;;;;;5024774;28;20295;-63
2022/12/25 07:51:09;;;;;;;;;;;9.80;99.90;;;;;;5029102;28;19914;-62
2022/12/25 07:53:35;;;;;;;;;;;9.80;99.90;;;;;;5026610;28;20395;-62
2022/12/25 07:56:09;;;;;;;;;;;9.80;99.90;;;;;;5025352;28;20003;-62
2022/12/25 07:58:34;;;;;;;;;;;9.80;99.90;;;;;;5025796;28;19917;-62
2022/12/25 08:01:04;;;;;;;;;;;9.80;99.90;;;;;;5026620;28;19936;-62
2022/12/25 08:03:30;;;;;;;;;;;9.90;99.90;;;;;;5025468;28;19913;-62
2022/12/25 08:05:58;;;;;;;;;;;9.90;99.90;;;;;;5024802;28;20370;-62
2022/12/25 08:08:24;;;;;;;;;;;9.90;99.90;;;;;;5024855;28;19996;-60
2022/12/25 08:10:49;;;;;;;;;;;9.90;99.90;;;;;;5027635;28;20012;-63
2022/12/25 08:13:15;;;;;;;;;;;9.80;99.90;;;;;;5028766;28;20008;-62
2022/12/25 08:15:40;;;;;;;;;;;9.90;99.90;;;;;;5021916;28;19914;-61
2022/12/25 08:18:06;;;;;;;;;;;9.90;99.90;;;;;;5023790;28;19917;-60
2022/12/25 08:20:32;;;;;;;;;;;9.90;99.90;;;;;;5024719;28;19979;-62
2022/12/25 08:22:58;;;;;;;;;;;9.90;99.90;;;;;;5027083;28;19936;-62
2022/12/25 08:25:23;;;;;;;;;;;9.90;99.90;;;;;;5026829;28;20371;-62
2022/12/25 08:27:49;;;;;;;;;;;10.00;99.90;;;;;;5027648;28;20338;-62
2022/12/25 08:30:14;;;;;;;;;;;10.00;99.90;;;;;;5020623;28;19961;-61
2022/12/25 08:32:40;;;;;;;;;;;10.00;99.90;;;;;;5026552;28;19909;-61
2022/12/25 08:35:06;;;;;;;;;;;10.00;99.90;;;;;;5032192;28;19924;-61
2022/12/25 08:37:31;;;;;;;;;;;10.10;99.90;;;;;;5033632;28;20577;-61
2022/12/25 08:39:56;;;;;;;;;;;10.10;99.90;;;;;;5031031;28;19917;-61
2022/12/25 08:42:22;;;;;;;;;;;10.10;99.90;;;;;;5030768;28;20001;-60
2022/12/25 08:44:47;;;;;;;;;;;10.10;99.90;;;;;;5030060;28;20318;-61
2022/12/25 08:47:13;;;;;;;;;;;10.10;99.90;;;;;;5028748;28;19956;-61
2022/12/25 08:49:38;;;;;;;;;;;10.20;99.90;;;;;;5032427;28;19913;-58
2022/12/25 08:52:04;;;;;;;;;;;10.20;99.90;;;;;;5023469;28;20442;-60
2022/12/25 08:54:31;;;;;;;;;;;10.20;99.90;;;;;;5032427;28;19983;-61
2022/12/25 08:56:56;;;;;;;;;;;10.30;99.90;;;;;;5033059;28;19917;-60
2022/12/25 08:59:22;;;;;;;;;;;10.30;99.90;;;;;;5030752;28;19999;-61
2022/12/25 09:01:47;;;;;;;;;;;10.30;99.90;;;;;;5026999;28;19924;-60
2022/12/25 09:04:13;;;;;;;;;;;10.30;99.90;;;;;;5031522;28;20400;-61
2022/12/25 09:06:38;;;;;;;;;;;10.40;99.90;;;;;;5029234;28;19914;-61
2022/12/25 09:09:04;;;;;;;;;;;10.40;99.90;;;;;;5029779;28;20004;-61
2022/12/25 09:11:29;;;;;;;;;;;10.40;99.90;;;;;;5026668;28;19916;-61
2022/12/25 09:13:55;;;;;;;;;;;10.40;99.90;;;;;;5023401;28;19964;-61
2022/12/25 09:16:20;;;;;;;;;;;10.40;99.90;;;;;;5027153;28;20395;-60
2022/12/25 09:18:46;;;;;;;;;;;10.40;99.90;;;;;;5025660;28;19921;-60
2022/12/25 09:21:12;;;;;;;;;;;10.40;99.90;;;;;;5027856;28;19917;-60
2022/12/25 09:23:38;;;;;;;;;;;10.40;99.90;;;;;;5024947;28;19917;-62
2022/12/25 09:26:04;;;;;;;;;;;10.40;99.90;;;;;;5028320;28;19924;-61
2022/12/25 09:28:30;;;;;;;;;;;10.30;99.90;;;;;;5024526;28;19965;-58
2022/12/25 09:30:56;;;;;;;;;;;10.30;99.90;;;;;;5027489;28;20417;-61
2022/12/25 09:33:22;;;;;;;;;;;10.30;99.90;;;;;;5027018;28;19917;-61
2022/12/25 09:35:54;;;;;;;;;;;10.30;99.90;;;;;;5024727;28;19928;-60
2022/12/25 09:38:19;;;;;;;;;;;10.30;99.90;;;;;;5024734;28;20536;-61
2022/12/25 09:40:45;;;;;;;;;;;10.30;99.90;;;;;;5025643;28;19921;-60
2022/12/25 09:43:15;;;;;;;;;;;10.30;99.90;;;;;;5024277;28;20694;-60
2022/12/25 09:45:41;;;;;;;;;;;10.40;99.90;;;;;;5021748;28;19913;-59
2022/12/25 09:48:10;;;;;;;;;;;10.40;99.90;;;;;;5027589;28;19921;-59
2022/12/25 09:50:45;;;;;;;;;;;10.30;99.90;;;;;;5026657;28;19920;-59
2022/12/25 09:53:24;;;;;;;;;;;10.30;99.90;;;;;;5022772;28;20311;-58
2022/12/25 09:56:00;;;;;;;;;;;10.40;99.90;;;;;;5026936;28;19917;-61
2022/12/25 09:58:27;;;;;;;;;;;10.30;99.90;;;;;;5029047;28;19917;-61
2022/12/25 10:00:59;;;;;;;;;;;10.30;99.90;;;;;;5026711;28;19931;-59
2022/12/25 10:03:31;;;;;;;;;;;10.30;99.90;;;;;;5027803;28;19917;-59
2022/12/25 10:06:15;;;;;;;;;;;10.30;99.90;;;;;;5023504;28;19928;-59
2022/12/25 10:08:40;;;;;;;;;;;10.30;99.90;;;;;;5021584;28;20303;-59
2022/12/25 10:11:12;;;;;;;;;;;10.30;99.90;;;;;;5021093;28;19917;-60
2022/12/25 10:13:46;;;;;;;;;;;10.30;99.90;;;;;;5022838;28;20016;-60
2022/12/25 10:16:14;;;;;;;;;;;10.30;99.90;;;;;;5023789;28;19983;-60
2022/12/25 10:18:47;;;;;;;;;;;10.30;99.90;;;;;;5017681;28;19917;-60
2022/12/25 10:21:13;;;;;;;;;;;10.30;99.90;;;;;;5026361;28;19921;-61
2022/12/25 10:23:41;;;;;;;;;;;10.40;99.90;;;;;;5021351;28;19921;-61
2022/12/25 10:26:17;;;;;;;;;;;10.40;99.90;;;;;;5022818;28;19917;-61
2022/12/25 10:28:44;;;;;;;;;;;10.40;99.90;;;;;;5018140;28;20161;-60
2022/12/25 10:31:20;;;;;;;;;;;10.50;99.90;;;;;;5024473;28;19928;-61
2022/12/25 10:33:47;;;;;;;;;;;10.50;99.90;;;;;;5014657;28;19924;-61
2022/12/25 10:36:13;;;;;;;;;;;10.50;99.90;;;;;;5018163;28;19994;-61
2022/12/25 10:38:38;;;;;;;;;;;10.50;99.90;;;;;;5027668;28;19913;-61
2022/12/25 10:41:22;;;;;;;;;;;10.50;99.90;;;;;;5027238;28;20498;-60
2022/12/25 10:43:49;;;;;;;;;;;10.50;99.90;;;;;;5024544;28;19956;-59
2022/12/25 10:46:15;;;;;;;;;;;10.60;99.90;;;;;;5021637;28;19917;-61
2022/12/25 10:48:43;;;;;;;;;;;10.50;99.90;;;;;;5026035;28;19917;-61
2022/12/25 10:51:08;;;;;;;;;;;10.50;99.90;;;;;;5026572;28;19956;-61
2022/12/25 10:53:38;;;;;;;;;;;10.50;99.90;;;;;;5025822;28;19980;-61
2022/12/25 10:56:04;;;;;;;;;;;10.50;99.90;;;;;;5024617;28;19929;-61
2022/12/25 10:58:30;;;;;;;;;;;10.50;99.90;;;;;;5020374;28;19917;-62
2022/12/25 11:00:57;;;;;;;;;;;10.50;99.90;;;;;;5022024;28;19999;-61
2022/12/25 11:03:24;;;;;;;;;;;10.50;99.90;;;;;;5022963;28;19921;-61
2022/12/25 11:05:50;;;;;;;;;;;10.50;99.90;;;;;;5027502;28;19921;-61
2022/12/25 11:08:19;;;;;;;;;;;10.50;99.90;;;;;;5022923;28;19923;-61
2022/12/25 11:10:50;;;;;;;;;;;10.50;99.90;;;;;;5022292;28;19921;-60
2022/12/25 11:13:17;;;;;;;;;;;10.50;99.90;;;;;;5024308;28;20452;-61
2022/12/25 11:15:43;;;;;;;;;;;10.50;99.90;;;;;;5025268;28;19917;-61
2022/12/25 11:18:23;;;;;;;;;;;10.50;99.90;;;;;;5025740;28;20298;-63
2022/12/25 11:20:59;;;;;;;;;;;10.50;99.90;;;;;;5023014;28;20386;-60
2022/12/25 11:23:25;;;;;;;;;;;10.60;99.90;;;;;;5023925;28;19997;-61
2022/12/25 11:25:58;;;;;;;;;;;10.50;99.90;;;;;;5024840;28;19959;-61
2022/12/25 11:28:24;;;;;;;;;;;10.50;99.90;;;;;;5020212;28;19924;-62
2022/12/25 11:30:52;;;;;;;;;;;10.50;99.90;;;;;;5026774;28;20379;-60
2022/12/25 11:33:19;;;;;;;;;;;10.60;99.90;;;;;;5023893;28;19924;-60
2022/12/25 11:35:49;;;;;;;;;;;10.60;99.90;;;;;;5019277;28;19921;-61
2022/12/25 11:38:14;;;;;;;;;;;10.60;99.90;;;;;;5023607;28;19913;-61
2022/12/25 11:40:43;;;;;;;;;;;10.70;99.90;;;;;;5021662;28;21128;-62
2022/12/25 11:43:14;;;;;;;;;;;10.70;99.90;;;;;;5021224;28;20040;-61
2022/12/25 11:45:59;;;;;;;;;;;10.70;99.90;;;;;;5015301;28;19968;-60
2022/12/25 11:48:28;;;;;;;;;;;10.60;99.90;;;;;;5008967;28;19925;-61
2022/12/25 11:50:55;;;;;;;;;;;10.60;99.90;;;;;;5021539;28;20023;-62
2022/12/25 11:53:24;;;;;;;;;;;10.60;99.90;;;;;;5045397;23;19925;-57
2022/12/25 11:55:53;;;;;;;;;;;10.60;99.90;;;;;;5021514;28;19922;-58
2022/12/25 11:58:25;;;;;;;;;;;10.60;99.90;;;;;;5031083;28;19917;-58
2022/12/25 12:00:52;;;;;;;;;;;10.70;99.90;;;;;;5011693;28;19925;-60
2022/12/25 12:03:20;;;;;;;;;;;10.70;99.90;;;;;;5024091;28;20299;-61
2022/12/25 12:06:11;;;;;;;;;;;10.70;99.90;;;;;;5018526;28;20060;-60
2022/12/25 12:08:37;;;;;;;;;;;10.70;99.90;;;;;;5019735;28;19913;-62
2022/12/25 12:11:16;;;;;;;;;;;10.70;99.90;;;;;;5015896;28;19913;-59
2022/12/25 12:13:56;;;;;;;;;;;10.80;99.90;;;;;;5026484;28;19928;-61
2022/12/25 12:16:22;;;;;;;;;;;10.80;99.90;;;;;;5020899;28;20414;-60
2022/12/25 12:18:47;;;;;;;;;;;10.80;99.90;;;;;;5021185;28;19917;-54
2022/12/25 12:21:19;;;;;;;;;;;10.80;99.90;;;;;;5020880;28;19925;-59
2022/12/25 12:24:00;;;;;;;;;;;10.80;99.90;;;;;;5022445;28;19913;-60
2022/12/25 12:26:26;;;;;;;;;;;10.80;99.90;;;;;;5018666;28;19918;-60
2022/12/25 12:28:54;;;;;;;;;;;10.80;99.90;;;;;;5018293;28;19917;-57
2022/12/25 12:31:19;;;;;;;;;;;10.80;99.90;;;;;;5023579;28;20378;-59
2022/12/25 12:33:50;;;;;;;;;;;10.90;99.90;;;;;;5022237;28;19913;-60
2022/12/25 12:36:17;;;;;;;;;;;10.90;99.90;;;;;;5028684;28;19960;-59
2022/12/25 12:38:43;;;;;;;;;;;11.00;99.90;;;;;;5022092;28;20004;-60
2022/12/25 12:41:10;;;;;;;;;;;11.00;99.90;;;;;;5022127;28;20040;-61
2022/12/25 12:43:39;;;;;;;;;;;11.00;99.90;;;;;;5022053;28;20375;-60
2022/12/25 12:46:18;;;;;;;;;;;11.10;99.90;;;;;;5023469;28;19917;-61
2022/12/25 12:48:45;;;;;;;;;;;11.10;99.90;;;;;;5023847;28;19984;-62
2022/12/25 12:51:12;;;;;;;;;;;11.10;99.90;;;;;;5023816;28;20409;-61
2022/12/25 12:53:38;;;;;;;;;;;11.10;99.90;;;;;;5019058;28;19921;-61
2022/12/25 12:56:08;;;;;;;;;;;11.20;99.90;;;;;;5020417;28;21662;-60
2022/12/25 12:58:35;;;;;;;;;;;11.20;99.90;;;;;;5020717;28;19976;-61
2022/12/25 13:01:00;;;;;;;;;;;11.20;99.90;;;;;;5025303;28;19964;-57
2022/12/25 13:03:32;;;;;;;;;;;11.30;99.90;;;;;;5019271;28;19928;-62
2022/12/25 13:05:57;;;;;;;;;;;11.30;99.90;;;;;;5015776;28;19944;-60
2022/12/25 13:08:23;;;;;;;;;;;11.30;99.90;;;;;;5013425;28;19971;-61
2022/12/25 13:10:50;;;;;;;;;;;11.30;99.90;;;;;;5023449;28;19986;-59
2022/12/25 13:13:23;;;;;;;;;;;11.30;99.90;;;;;;5019019;28;19924;-60
2022/12/25 13:15:49;;;;;;;;;;;11.30;99.90;;;;;;5024246;28;20015;-61
2022/12/25 13:18:14;;;;;;;;;;;11.40;99.90;;;;;;5022536;28;20633;-61
2022/12/25 13:20:46;;;;;;;;;;;11.40;99.90;;;;;;5021735;28;20334;-62
2022/12/25 13:23:23;;;;;;;;;;;11.40;99.90;;;;;;5025190;28;19917;-58
2022/12/25 13:25:56;;;;;;;;;;;11.40;99.90;;;;;;5025854;28;19921;-59
2022/12/25 13:28:26;;;;;;;;;;;11.40;99.90;;;;;;5009798;28;19917;-61
2022/12/25 13:30:51;;;;;;;;;;;11.40;99.90;;;;;;5024855;28;19913;-64
2022/12/25 13:33:26;;;;;;;;;;;11.40;99.90;;;;;;5030504;28;20512;-62
2022/12/25 13:35:52;;;;;;;;;;;11.40;99.90;;;;;;5026213;28;19917;-57
2022/12/25 13:38:18;;;;;;;;;;;11.50;99.90;;;;;;5025499;28;20624;-61
2022/12/25 13:42:04;;;;;;;;;;;11.50;99.90;;;;;;5025871;28;19988;-58
2022/12/25 13:43:34;;;;;;;;;;;11.50;99.90;;;;;;5028860;28;20724;-62
2022/12/25 13:46:00;;;;;;;;;;;11.50;99.90;;;;;;5039052;28;19964;-60
2022/12/25 13:48:25;;;;;;;;;;;11.50;99.90;;;;;;5027152;28;19917;-58
2022/12/25 13:50:55;;;;;;;;;;;11.50;99.90;;;;;;5023833;28;19967;-60
2022/12/25 13:53:21;;;;;;;;;;;11.50;99.90;;;;;;5024992;28;19936;-59
2022/12/25 13:55:48;;;;;;;;;;;11.50;99.90;;;;;;5024051;28;19913;-58
2022/12/25 13:58:21;;;;;;;;;;;11.50;99.90;;;;;;5022995;28;19917;-61
2022/12/25 14:00:51;;;;;;;;;;;11.50;99.90;;;;;;5023301;28;19929;-61
2022/12/25 14:03:19;;;;;;;;;;;11.50;99.90;;;;;;5022568;28;20552;-61
2022/12/25 14:05:44;;;;;;;;;;;11.50;99.90;;;;;;5021715;28;19924;-59
2022/12/25 14:08:14;;;;;;;;;;;11.50;99.90;;;;;;5024275;28;19909;-60
2022/12/25 14:10:40;;;;;;;;;;;11.50;99.90;;;;;;5022478;28;20445;-60
2022/12/25 14:13:08;;;;;;;;;;;11.60;99.90;;;;;;5020765;28;19913;-59
2022/12/25 14:15:35;;;;;;;;;;;11.60;99.90;;;;;;5026699;28;19917;-61
2022/12/25 14:18:00;;;;;;;;;;;11.60;99.90;;;;;;5029508;28;19913;-62
2022/12/25 14:20:52;;;;;;;;;;;11.70;99.90;;;;;;5028216;28;19924;-59
2022/12/25 14:23:18;;;;;;;;;;;11.70;99.90;;;;;;5022702;28;20011;-61
2022/12/25 14:25:44;;;;;;;;;;;11.60;99.90;;;;;;5029049;28;19934;-59
2022/12/25 14:28:31;;;;;;;;;;;11.60;99.90;;;;;;5027146;28;20387;-60
2022/12/25 14:30:58;;;;;;;;;;;11.70;99.90;;;;;;5038638;28;19917;-60
2022/12/25 14:33:24;;;;;;;;;;;11.70;99.90;;;;;;5022323;28;19914;-59
2022/12/25 14:35:51;;;;;;;;;;;11.70;99.90;;;;;;5026795;28;19971;-60
2022/12/25 14:38:27;;;;;;;;;;;11.70;99.90;;;;;;5025544;28;19913;-59
2022/12/25 14:41:02;;;;;;;;;;;11.70;99.90;;;;;;5024220;28;19925;-59
2022/12/25 14:43:28;;;;;;;;;;;11.60;99.90;;;;;;5025698;28;19917;-57
2022/12/25 14:45:55;;;;;;;;;;;11.70;99.90;;;;;;5020422;28;19925;-60
2022/12/25 14:48:22;;;;;;;;;;;11.70;99.90;;;;;;5023445;28;19997;-63
2022/12/25 14:51:08;;;;;;;;;;;11.70;99.90;;;;;;5023535;28;19913;-61
2022/12/25 14:53:33;;;;;;;;;;;11.70;99.90;;;;;;5023816;28;19940;-61
2022/12/25 14:55:59;;;;;;;;;;;11.60;99.90;;;;;;5022535;28;20391;-62
2022/12/25 14:58:25;;;;;;;;;;;11.60;99.90;;;;;;5025522;28;19917;-62
2022/12/25 15:00:53;;;;;;;;;;;11.60;99.90;;;;;;5017639;28;19921;-60
2022/12/25 15:03:25;;;;;;;;;;;11.60;99.90;;;;;;5021172;28;19928;-62
2022/12/25 15:06:00;;;;;;;;;;;11.60;99.90;;;;;;5021086;28;19966;-61
2022/12/25 15:08:27;;;;;;;;;;;11.60;99.90;;;;;;5020145;28;19917;-62
2022/12/25 15:10:53;;;;;;;;;;;11.50;99.90;;;;;;5024112;28;19913;-59
2022/12/25 15:13:19;;;;;;;;;;;11.50;99.90;;;;;;5017224;28;19917;-61
2022/12/25 15:15:56;;;;;;;;;;;11.50;99.90;;;;;;5021710;28;20292;-60
2022/12/25 15:18:23;;;;;;;;;;;11.50;99.90;;;;;;5022182;28;19921;-59
2022/12/25 15:20:52;;;;;;;;;;;11.50;99.90;;;;;;5016544;28;20362;-59
2022/12/25 15:23:18;;;;;;;;;;;11.50;99.90;;;;;;5025091;28;19922;-61
2022/12/25 15:25:43;;;;;;;;;;;11.50;99.90;;;;;;5015807;28;19924;-60
2022/12/25 15:28:10;;;;;;;;;;;11.50;99.90;;;;;;5021374;28;19921;-63
2022/12/25 15:30:38;;;;;;;;;;;11.50;99.90;;;;;;5038447;28;19917;-61
2022/12/25 15:33:06;;;;;;;;;;;11.40;99.90;;;;;;5021579;28;19914;-60
2022/12/25 15:35:33;;;;;;;;;;;11.40;99.90;;;;;;5026419;28;19932;-61
2022/12/25 15:37:58;;;;;;;;;;;11.40;99.90;;;;;;5028637;28;20341;-59
2022/12/25 15:40:24;;;;;;;;;;;11.30;99.90;;;;;;5020844;28;19963;-60
2022/12/25 15:42:49;;;;;;;;;;;11.30;99.90;;;;;;5018462;28;19971;-61
2022/12/25 15:45:29;;;;;;;;;;;11.30;99.90;;;;;;5023288;28;19917;-60
2022/12/25 15:47:54;;;;;;;;;;;11.30;99.90;;;;;;5023805;28;19913;-60
2022/12/25 15:50:20;;;;;;;;;;;11.30;99.90;;;;;;5020601;28;19924;-58
2022/12/25 15:52:46;;;;;;;;;;;11.30;99.90;;;;;;5027097;28;19917;-61
2022/12/25 15:55:11;;;;;;;;;;;11.30;99.90;;;;;;5026065;28;20291;-58
2022/12/25 15:57:38;;;;;;;;;;;11.40;99.90;;;;;;5023602;28;19917;-60
2022/12/25 16:00:05;;;;;;;;;;;11.30;99.90;;;;;;5020848;28;19925;-60
2022/12/25 16:02:32;;;;;;;;;;;11.30;99.90;;;;;;5021501;28;21225;-58
2022/12/25 16:04:57;;;;;;;;;;;11.40;99.90;;;;;;5020763;28;19917;-60
2022/12/25 16:07:23;;;;;;;;;;;11.40;99.90;;;;;;5026726;28;19963;-59
2022/12/25 16:09:49;;;;;;;;;;;11.40;99.90;;;;;;5022341;28;20473;-62